Time;durP1;ratioP1;P1;durP2;ratioP2;P2;SDS_P1;SDS_P2;PMS_P1;PMS_P2;Temp;Humidity;BMP_temperature;BMP_pressure;BME280_temperature;BME280_humidity;BME280_pressure;Samples;Min_cycle;Max_cycle;Signal;HPM_P1;HPM_P2
2023/05/11 00:01:07;;;;;;;8.57;4.88;;;16.40;88.50;;;;;;4917121;29;20115;-83
2023/05/11 00:03:34;;;;;;;9.02;4.85;;;16.50;88.50;;;;;;4891152;29;20017;-84
2023/05/11 00:05:59;;;;;;;8.30;4.85;;;16.50;88.50;;;;;;4898692;29;20068;-83
2023/05/11 00:08:25;;;;;;;8.27;5.38;;;16.40;88.50;;;;;;4901218;29;20050;-82
2023/05/11 00:10:51;;;;;;;7.47;4.60;;;16.40;88.40;;;;;;4916864;29;20428;-83
2023/05/11 00:13:16;;;;;;;8.05;4.90;;;16.40;88.50;;;;;;4918768;29;20035;-82
2023/05/11 00:15:42;;;;;;;8.32;5.10;;;16.40;88.50;;;;;;4917333;29;20028;-84
2023/05/11 00:18:08;;;;;;;7.88;4.88;;;16.40;88.40;;;;;;4917686;29;20039;-83
2023/05/11 00:20:33;;;;;;;8.73;5.55;;;16.40;88.50;;;;;;4917354;29;20024;-84
2023/05/11 00:22:59;;;;;;;8.52;4.90;;;16.40;88.50;;;;;;4933089;29;20028;-83
2023/05/11 00:25:24;;;;;;;7.88;4.68;;;16.40;88.40;;;;;;4936477;29;20384;-83
2023/05/11 00:27:50;;;;;;;8.68;5.05;;;16.40;88.50;;;;;;4932931;29;20027;-83
2023/05/11 00:30:15;;;;;;;8.88;5.15;;;16.40;88.40;;;;;;4918634;29;20024;-84
2023/05/11 00:32:42;;;;;;;7.40;4.60;;;16.40;88.40;;;;;;4937267;29;20066;-83
2023/05/11 00:35:09;;;;;;;8.77;5.20;;;16.40;88.50;;;;;;4917291;29;20020;-84
2023/05/11 00:37:35;;;;;;;7.95;5.00;;;16.40;88.40;;;;;;4937158;29;20029;-83
2023/05/11 00:40:01;;;;;;;8.30;5.43;;;16.40;88.50;;;;;;4932807;29;20171;-84
2023/05/11 00:42:27;;;;;;;10.48;5.47;;;16.40;88.50;;;;;;4936689;29;20047;-84
2023/05/11 00:44:52;;;;;;;7.97;5.03;;;16.40;88.90;;;;;;4932606;29;20082;-84
2023/05/11 00:47:18;;;;;;;8.52;5.20;;;16.40;88.40;;;;;;4935427;29;20028;-84
2023/05/11 00:49:44;;;;;;;8.80;5.00;;;16.40;88.40;;;;;;4916710;29;20061;-84
2023/05/11 00:52:10;;;;;;;8.55;5.30;;;16.40;88.40;;;;;;4934366;29;20055;-84
2023/05/11 00:54:36;;;;;;;8.60;4.88;;;16.40;88.40;;;;;;4916510;29;20056;-83
2023/05/11 00:57:02;;;;;;;8.50;4.82;;;16.40;88.40;;;;;;4933027;29;20424;-83
2023/05/11 00:59:28;;;;;;;9.40;4.80;;;16.40;88.40;;;;;;4919639;29;20031;-84
2023/05/11 01:01:54;;;;;;;8.50;5.40;;;16.40;88.40;;;;;;4916585;29;20059;-83
2023/05/11 01:04:20;;;;;;;8.18;5.30;;;16.40;88.40;;;;;;4918273;29;20027;-84
2023/05/11 01:07:23;;;;;;;9.00;5.60;;;16.40;88.40;;;;;;4916040;29;20087;-84
2023/05/11 01:10:07;;;;;;;8.63;5.20;;;16.40;88.40;;;;;;4936036;29;20016;-83
2023/05/11 01:12:51;;;;;;;8.95;5.55;;;16.40;88.40;;;;;;4936564;29;20027;-84
2023/05/11 01:15:35;;;;;;;8.60;4.95;;;16.40;88.40;;;;;;4936459;29;20043;-84
2023/05/11 01:18:28;;;;;;;7.45;4.65;;;16.40;88.40;;;;;;4936514;29;20024;-84
2023/05/11 01:21:00;;;;;;;8.65;5.40;;;16.40;88.40;;;;;;4931472;29;20024;-83
2023/05/11 01:23:29;;;;;;;9.70;5.85;;;16.40;88.40;;;;;;4918698;29;20031;-84
2023/05/11 01:26:09;;;;;;;9.93;5.13;;;16.40;88.40;;;;;;4916125;29;20032;-83
2023/05/11 01:28:46;;;;;;;8.93;5.38;;;16.40;88.40;;;;;;4936200;29;20020;-83
2023/05/11 01:31:14;;;;;;;8.93;5.40;;;16.40;88.90;;;;;;4936234;29;20031;-83
2023/05/11 01:33:46;;;;;;;8.68;5.57;;;16.40;88.40;;;;;;4915845;29;20032;-83
2023/05/11 01:36:13;;;;;;;8.70;5.07;;;16.40;88.40;;;;;;4916824;29;20020;-83
2023/05/11 01:38:43;;;;;;;9.05;5.43;;;16.30;88.30;;;;;;4931762;29;20035;-84
2023/05/11 01:41:13;;;;;;;10.00;5.45;;;16.40;88.40;;;;;;4916264;29;20024;-83
2023/05/11 01:43:41;;;;;;;8.75;5.53;;;16.40;88.30;;;;;;4915819;29;20026;-84
2023/05/11 01:46:09;;;;;;;8.73;5.40;;;16.40;88.30;;;;;;4915900;29;20016;-83
2023/05/11 01:48:38;;;;;;;10.07;5.40;;;16.40;88.30;;;;;;4915631;29;20020;-83
2023/05/11 01:51:04;;;;;;;8.65;5.30;;;16.40;88.30;;;;;;4915692;29;20024;-84
2023/05/11 01:53:34;;;;;;;9.20;5.38;;;16.40;88.30;;;;;;4915610;29;20017;-83
2023/05/11 01:56:01;;;;;;;10.07;5.43;;;16.30;88.30;;;;;;4915797;29;20024;-83
2023/05/11 01:58:28;;;;;;;8.35;5.75;;;16.40;88.40;;;;;;4918381;29;20027;-84
2023/05/11 02:00:54;;;;;;;9.05;5.40;;;16.30;88.30;;;;;;4935627;29;20028;-83
2023/05/11 02:03:21;;;;;;;8.25;5.28;;;16.40;88.40;;;;;;4917414;29;20020;-83
2023/05/11 02:05:49;;;;;;;8.73;5.50;;;16.30;88.30;;;;;;4915414;29;20050;-84
2023/05/11 02:08:16;;;;;;;8.90;5.55;;;16.40;88.30;;;;;;4916506;29;20051;-83
2023/05/11 02:10:44;;;;;;;8.63;5.28;;;16.40;88.30;;;;;;4915028;29;20193;-83
2023/05/11 02:13:11;;;;;;;9.00;5.82;;;16.40;88.40;;;;;;4916039;29;20477;-83
2023/05/11 02:15:40;;;;;;;9.65;5.68;;;16.30;88.30;;;;;;4935545;29;20094;-84
2023/05/11 02:18:08;;;;;;;8.52;5.40;;;16.30;88.30;;;;;;4914618;29;20176;-83
2023/05/11 02:20:34;;;;;;;9.98;5.93;;;16.30;88.30;;;;;;4915200;29;20051;-83
2023/05/11 02:23:01;;;;;;;8.65;5.55;;;16.30;88.30;;;;;;4931445;29;20078;-83
2023/05/11 02:25:28;;;;;;;9.45;5.80;;;16.30;88.30;;;;;;4917925;29;20027;-84
2023/05/11 02:27:54;;;;;;;10.07;6.45;;;16.30;88.30;;;;;;4915236;29;20024;-83
2023/05/11 02:30:19;;;;;;;8.88;5.90;;;16.30;88.30;;;;;;4917035;29;20020;-82
2023/05/11 02:32:54;;;;;;;9.13;5.88;;;16.30;88.30;;;;;;4915302;29;20031;-83
2023/05/11 02:35:24;;;;;;;10.18;5.95;;;16.40;88.30;;;;;;4933837;29;20043;-83
2023/05/11 02:37:55;;;;;;;8.85;5.68;;;16.30;88.30;;;;;;4915389;29;20024;-84
2023/05/11 02:40:27;;;;;;;9.07;6.00;;;16.30;88.30;;;;;;4917369;29;20050;-83
2023/05/11 02:42:57;;;;;;;8.77;5.38;;;16.30;88.20;;;;;;4914955;29;20362;-83
2023/05/11 02:45:24;;;;;;;8.65;5.30;;;16.30;88.30;;;;;;4916275;29;20377;-83
2023/05/11 02:47:55;;;;;;;9.45;5.93;;;16.30;88.20;;;;;;4935227;29;20024;-84
2023/05/11 02:50:23;;;;;;;9.20;5.70;;;16.40;88.30;;;;;;4935157;29;20016;-83
2023/05/11 02:52:52;;;;;;;8.75;5.75;;;16.30;88.20;;;;;;4935292;29;20016;-83
2023/05/11 02:55:19;;;;;;;9.50;5.65;;;16.30;88.20;;;;;;4916513;29;20020;-84
2023/05/11 02:57:45;;;;;;;8.82;5.60;;;16.30;88.20;;;;;;4915064;29;20028;-83
2023/05/11 03:00:11;;;;;;;9.20;5.97;;;16.30;88.20;;;;;;4915576;29;20051;-83
2023/05/11 03:02:37;;;;;;;8.88;5.80;;;16.30;88.20;;;;;;4914842;29;20111;-84
2023/05/11 03:05:03;;;;;;;9.02;6.05;;;16.30;88.20;;;;;;4914927;29;20476;-83
2023/05/11 03:07:30;;;;;;;8.85;5.80;;;16.30;88.20;;;;;;4917955;29;20052;-83
2023/05/11 03:09:56;;;;;;;9.25;5.90;;;16.30;88.20;;;;;;4914513;29;20025;-83
2023/05/11 03:12:22;;;;;;;8.27;5.53;;;16.30;88.20;;;;;;4933894;29;20035;-83
2023/05/11 03:14:49;;;;;;;8.48;5.72;;;16.30;88.20;;;;;;4930540;29;20027;-83
2023/05/11 03:17:15;;;;;;;9.00;5.82;;;16.30;88.20;;;;;;4916135;29;20131;-84
2023/05/11 03:19:41;;;;;;;8.95;5.95;;;16.30;88.20;;;;;;4914817;29;20028;-83
2023/05/11 03:22:08;;;;;;;8.90;6.00;;;16.30;88.20;;;;;;4915108;29;20376;-82
2023/05/11 03:24:34;;;;;;;8.82;6.07;;;16.30;88.20;;;;;;4934786;29;20031;-83
2023/05/11 03:27:02;;;;;;;8.98;5.72;;;16.30;88.20;;;;;;4914762;29;20047;-83
2023/05/11 03:29:30;;;;;;;8.35;5.60;;;16.30;88.20;;;;;;4936690;29;20020;-84
2023/05/11 03:31:55;;;;;;;9.25;5.93;;;16.30;88.20;;;;;;4938306;29;20093;-83
2023/05/11 03:34:21;;;;;;;9.48;6.43;;;16.30;88.20;;;;;;4919975;29;20106;-83
2023/05/11 03:36:51;;;;;;;9.63;6.30;;;16.30;88.20;;;;;;4938342;29;20047;-84
2023/05/11 03:39:18;;;;;;;8.55;5.80;;;16.30;88.50;;;;;;4919530;29;20039;-84
2023/05/11 03:41:47;;;;;;;9.35;6.07;;;16.30;88.20;;;;;;4938185;29;20031;-84
2023/05/11 03:44:13;;;;;;;9.98;6.53;;;16.30;88.20;;;;;;4934468;29;20024;-84
2023/05/11 03:46:40;;;;;;;9.20;6.35;;;16.30;88.20;;;;;;4917898;29;20083;-83
2023/05/11 03:49:06;;;;;;;9.35;6.22;;;16.30;88.20;;;;;;4934771;29;20026;-84
2023/05/11 03:51:33;;;;;;;8.95;6.28;;;16.30;88.20;;;;;;4917868;29;20032;-83
2023/05/11 03:53:59;;;;;;;8.55;5.70;;;16.30;88.20;;;;;;4917737;29;20047;-84
2023/05/11 03:56:25;;;;;;;9.13;6.10;;;16.30;88.20;;;;;;4920266;29;20062;-82
2023/05/11 03:58:51;;;;;;;8.93;5.85;;;16.30;88.20;;;;;;4917887;29;20032;-84
2023/05/11 04:01:17;;;;;;;9.35;5.97;;;16.30;88.20;;;;;;4936227;29;20032;-84
2023/05/11 04:03:51;;;;;;;9.05;5.70;;;16.30;88.20;;;;;;4917541;29;20536;-83
2023/05/11 04:06:18;;;;;;;9.50;6.30;;;16.30;88.20;;;;;;4918955;29;20111;-83
2023/05/11 04:08:43;;;;;;;8.85;6.03;;;16.30;88.10;;;;;;4933400;29;20031;-83
2023/05/11 04:11:09;;;;;;;8.93;6.00;;;16.30;88.20;;;;;;4934694;29;20020;-84
2023/05/11 04:13:35;;;;;;;8.65;5.93;;;16.30;88.20;;;;;;4937521;29;20023;-83
2023/05/11 04:16:00;;;;;;;8.75;5.93;;;16.30;88.10;;;;;;4917414;29;20024;-84
2023/05/11 04:18:26;;;;;;;9.50;6.20;;;16.30;88.20;;;;;;4920157;29;20102;-84
2023/05/11 04:20:51;;;;;;;8.57;5.80;;;16.30;88.20;;;;;;4917369;29;20557;-81
2023/05/11 04:23:17;;;;;;;8.55;5.72;;;16.30;88.10;;;;;;4934530;29;20020;-83
2023/05/11 04:25:42;;;;;;;9.48;5.88;;;16.30;88.10;;;;;;4917200;29;20409;-84
2023/05/11 04:28:08;;;;;;;9.50;6.05;;;16.30;88.10;;;;;;4917484;29;20028;-83
2023/05/11 04:30:33;;;;;;;8.50;5.85;;;16.30;88.20;;;;;;4917388;29;20035;-83
2023/05/11 04:32:59;;;;;;;8.85;6.10;;;16.30;88.10;;;;;;4918304;29;20020;-82
2023/05/11 04:35:24;;;;;;;8.70;6.07;;;16.30;88.10;;;;;;4936380;29;20075;-84
2023/05/11 04:37:50;;;;;;;8.10;5.57;;;16.30;88.10;;;;;;4916551;29;20145;-84
2023/05/11 04:43:02;;;;;;;8.65;5.95;;;16.30;88.10;;;;;;4892573;29;20037;-84
2023/05/11 05:40:48;;;;;;;8.82;6.22;;;16.30;88.00;;;;;;5145575;23;20106;-84
2023/05/11 06:05:31;;;;;;;9.25;5.85;;;16.30;88.00;;;;;;5001359;23;20056;-84
2023/05/11 06:07:57;;;;;;;7.82;5.45;;;16.30;88.10;;;;;;4899033;29;20032;-85
2023/05/11 06:10:22;;;;;;;9.25;6.25;;;16.20;88.00;;;;;;4899136;29;20032;-86
2023/05/11 06:12:50;;;;;;;8.80;6.00;;;16.20;88.00;;;;;;4913721;29;20024;-85
2023/05/11 06:15:16;;;;;;;9.35;6.18;;;16.40;88.10;;;;;;4893868;29;20031;-84
2023/05/11 06:17:41;;;;;;;8.52;6.10;;;16.30;88.00;;;;;;4893516;29;20028;-85
2023/05/11 06:39:26;;;;;;;8.77;5.93;;;16.30;87.90;;;;;;4940454;29;20479;-85
2023/05/11 06:41:52;;;;;;;8.85;5.93;;;16.20;87.90;;;;;;4936346;29;20031;-87
2023/05/11 06:44:18;;;;;;;9.00;5.93;;;16.20;87.90;;;;;;4936322;29;20028;-88
2023/05/11 06:46:43;;;;;;;8.30;5.75;;;16.30;87.90;;;;;;4937026;29;20034;-86
2023/05/11 07:25:56;;;;;;;;;;;;;;;;;;;;;
2023/05/11 08:18:15;;;;;;;8.60;5.40;;;16.30;87.80;;;;;;5121355;23;20060;-86
2023/05/11 09:52:12;;;;;;;6.70;4.25;;;16.30;88.20;;;;;;4933856;29;20405;-85
2023/05/11 10:04:59;;;;;;;6.95;4.22;;;16.30;87.70;;;;;;4917198;29;20036;-84
2023/05/11 10:07:44;;;;;;;7.05;4.00;;;16.30;87.60;;;;;;4899702;29;20032;-86
2023/05/11 10:10:10;;;;;;;5.82;3.65;;;16.30;87.60;;;;;;4899726;29;20031;-85
2023/05/11 10:12:39;;;;;;;6.38;3.45;;;16.30;87.60;;;;;;4916737;29;20020;-85
2023/05/11 10:15:06;;;;;;;7.20;4.22;;;16.30;87.60;;;;;;4915198;29;20392;-86
2023/05/11 10:17:32;;;;;;;6.22;3.92;;;16.30;87.60;;;;;;4915655;29;20024;-86
2023/05/11 10:19:59;;;;;;;6.30;3.70;;;16.30;87.60;;;;;;4916067;29;20035;-85
2023/05/11 10:22:27;;;;;;;6.90;3.78;;;16.30;87.60;;;;;;4899915;29;20120;-86
2023/05/11 10:24:53;;;;;;;7.28;4.10;;;16.30;87.60;;;;;;4899658;29;20188;-86
2023/05/11 10:27:20;;;;;;;6.38;3.63;;;16.30;87.50;;;;;;4916418;29;20032;-85
2023/05/11 10:29:46;;;;;;;6.72;3.90;;;16.30;87.50;;;;;;4916512;29;20028;-85
2023/05/11 10:32:14;;;;;;;5.78;3.50;;;16.30;87.50;;;;;;4899730;29;20397;-86
2023/05/11 10:34:40;;;;;;;6.43;3.75;;;16.30;87.50;;;;;;4899486;29;20024;-85
2023/05/11 10:37:07;;;;;;;5.63;3.67;;;16.30;87.50;;;;;;4916434;29;20029;-85
2023/05/11 10:39:36;;;;;;;6.00;3.55;;;16.30;87.50;;;;;;4901800;29;20123;-85
2023/05/11 10:42:55;;;;;;;5.85;3.72;;;16.30;87.50;;;;;;4920245;29;20038;-85
2023/05/11 10:45:43;;;;;;;6.90;3.83;;;16.30;87.50;;;;;;4889023;29;20405;-85
2023/05/11 10:48:46;;;;;;;7.57;3.78;;;16.30;87.50;;;;;;4903266;29;20043;-85
2023/05/11 10:51:54;;;;;;;6.43;3.13;;;16.30;87.60;;;;;;4920070;29;20028;-85
2023/05/11 10:54:39;;;;;;;5.50;3.17;;;16.30;87.60;;;;;;4918682;29;20024;-86
2023/05/11 10:57:20;;;;;;;5.47;3.25;;;16.30;87.60;;;;;;4903090;29;20129;-86
2023/05/11 10:59:54;;;;;;;6.03;3.55;;;16.30;87.60;;;;;;4903285;29;20032;-86
2023/05/11 11:02:21;;;;;;;5.40;3.17;;;16.30;87.60;;;;;;4903010;29;20036;-86
2023/05/11 11:04:50;;;;;;;5.55;3.15;;;16.30;87.60;;;;;;4902952;29;20032;-85
2023/05/11 11:07:18;;;;;;;5.30;3.00;;;16.30;87.60;;;;;;4919726;29;20036;-86
2023/05/11 11:10:05;;;;;;;5.93;3.30;;;16.30;87.60;;;;;;4919915;29;20065;-85
2023/05/11 11:12:33;;;;;;;5.65;3.45;;;16.30;87.60;;;;;;4919825;29;20457;-86
2023/05/11 11:15:05;;;;;;;5.30;3.20;;;16.30;87.50;;;;;;4918445;29;20076;-85
2023/05/11 11:17:33;;;;;;;6.07;3.75;;;16.30;87.50;;;;;;4902868;29;20028;-86
2023/05/11 11:20:03;;;;;;;5.63;3.55;;;16.30;87.50;;;;;;4902242;29;20032;-85
2023/05/11 11:22:37;;;;;;;4.75;3.08;;;16.30;87.50;;;;;;4902759;29;20516;-86
2023/05/11 11:25:07;;;;;;;5.47;3.20;;;16.30;87.50;;;;;;4902282;29;20028;-85
2023/05/11 11:27:39;;;;;;;5.50;3.13;;;16.30;87.50;;;;;;4902507;29;20039;-86
2023/05/11 11:30:18;;;;;;;;;;;16.30;87.50;;;;;;4902901;29;20039;-86
2023/05/11 11:32:45;;;;;;;6.63;3.28;;;16.30;87.50;;;;;;4902417;29;19910;-86
2023/05/11 11:35:38;;;;;;;5.68;3.30;;;16.30;87.50;;;;;;4902213;29;20024;-86
2023/05/11 11:38:15;;;;;;;6.00;3.13;;;16.30;87.50;;;;;;4919415;29;20048;-85
2023/05/11 11:40:46;;;;;;;4.93;3.00;;;16.30;87.50;;;;;;4902179;29;20028;-85
2023/05/11 11:43:19;;;;;;;5.80;3.20;;;16.30;88.00;;;;;;4902505;29;20454;-85
2023/05/11 11:45:57;;;;;;;5.95;3.58;;;16.30;87.50;;;;;;4919096;29;20028;-85
2023/05/11 11:48:33;;;;;;;5.20;3.10;;;16.30;87.50;;;;;;4902413;29;20024;-86
2023/05/11 11:51:09;;;;;;;5.35;3.20;;;16.30;87.50;;;;;;4902145;29;20107;-86
2023/05/11 11:53:40;;;;;;;6.10;3.22;;;16.30;87.50;;;;;;4901913;29;20474;-85
2023/05/11 11:56:07;;;;;;;;;;;16.30;87.60;;;;;;4902673;29;20401;-86
2023/05/11 11:58:42;;;;;;;5.43;3.15;;;16.30;87.60;;;;;;4902230;29;20590;-85
2023/05/11 12:01:11;;;;;;;5.70;3.50;;;16.30;87.60;;;;;;4918776;29;20438;-85
2023/05/11 12:03:38;;;;;;;5.10;3.10;;;16.30;87.50;;;;;;4901838;29;20056;-85
2023/05/11 12:06:05;;;;;;;5.30;3.15;;;16.40;87.60;;;;;;4918908;29;20029;-86
2023/05/11 12:08:31;;;;;;;4.78;2.83;;;16.30;87.50;;;;;;4901715;29;20441;-85
2023/05/11 12:10:57;;;;;;;5.10;3.00;;;16.30;87.50;;;;;;4901792;29;20024;-85
2023/05/11 12:13:24;;;;;;;5.72;3.13;;;16.30;87.50;;;;;;4918524;29;20059;-85
2023/05/11 12:15:49;;;;;;;5.80;3.65;;;16.40;87.50;;;;;;4901745;29;20544;-86
2023/05/11 12:18:21;;;;;;;6.50;3.10;;;16.30;87.40;;;;;;4918665;29;20031;-85
2023/05/11 12:20:47;;;;;;;5.15;3.08;;;16.30;87.50;;;;;;4901293;29;20069;-85
2023/05/11 12:23:13;;;;;;;5.22;3.10;;;16.30;87.50;;;;;;4901627;29;20461;-85
2023/05/11 12:25:39;;;;;;;5.50;3.17;;;16.30;87.50;;;;;;4901495;29;20071;-85
2023/05/11 12:28:05;;;;;;;4.85;2.97;;;16.40;87.50;;;;;;4901454;29;20118;-85
2023/05/11 12:30:32;;;;;;;5.13;3.10;;;16.30;87.50;;;;;;4901327;29;20493;-85
2023/05/11 12:32:59;;;;;;;4.80;2.90;;;16.30;87.50;;;;;;4901211;29;20026;-86
2023/05/11 12:35:27;;;;;;;5.53;3.20;;;16.30;87.50;;;;;;4901301;29;20024;-86
2023/05/11 12:37:54;;;;;;;5.05;2.95;;;16.30;87.50;;;;;;4917190;29;20039;-86
2023/05/11 12:40:19;;;;;;;5.70;3.30;;;16.30;87.40;;;;;;4901417;29;20028;-85
2023/05/11 12:42:56;;;;;;;5.40;3.33;;;16.40;87.50;;;;;;4901321;29;20546;-86
2023/05/11 12:45:23;;;;;;;5.18;3.17;;;16.30;87.40;;;;;;4901281;29;20028;-86
2023/05/11 12:47:53;;;;;;;5.65;3.10;;;16.40;87.50;;;;;;4917023;29;20111;-86
2023/05/11 12:50:19;;;;;;;4.97;3.08;;;16.40;87.50;;;;;;4901318;29;20072;-86
2023/05/11 12:52:46;;;;;;;4.85;2.88;;;16.30;87.40;;;;;;4901352;29;20076;-85
2023/05/11 12:55:12;;;;;;;4.93;2.80;;;16.30;87.40;;;;;;4917899;29;20446;-87
2023/05/11 12:57:39;;;;;;;4.88;3.05;;;16.30;87.40;;;;;;4918045;29;20036;-84
2023/05/11 13:00:13;;;;;;;4.95;2.90;;;16.30;87.40;;;;;;4900734;29;20032;-85
2023/05/11 13:02:56;;;;;;;4.75;2.88;;;16.30;87.40;;;;;;4917366;29;20028;-85
2023/05/11 13:05:24;;;;;;;5.68;3.20;;;16.40;87.50;;;;;;4900837;29;20029;-85
2023/05/11 13:08:00;;;;;;;5.10;3.00;;;16.40;87.40;;;;;;4900726;29;20054;-86
2023/05/11 13:10:26;;;;;;;5.00;3.08;;;16.40;87.40;;;;;;4900597;29;20028;-86
2023/05/11 13:12:53;;;;;;;6.38;3.17;;;16.40;87.40;;;;;;4900707;29;20474;-86
2023/05/11 13:15:20;;;;;;;5.45;3.25;;;16.40;87.50;;;;;;4917360;29;20103;-86
2023/05/11 13:17:46;;;;;;;5.20;3.03;;;16.30;87.40;;;;;;4900712;29;20482;-85
2023/05/11 13:20:25;;;;;;;5.82;3.10;;;16.40;87.50;;;;;;4900402;29;20035;-86
2023/05/11 13:23:07;;;;;;;5.38;2.90;;;16.40;87.50;;;;;;4916431;29;20438;-86
2023/05/11 13:25:49;;;;;;;5.22;3.25;;;16.30;87.40;;;;;;4900286;29;20126;-85
2023/05/11 13:28:17;;;;;;;7.38;3.53;;;16.30;87.40;;;;;;4917331;29;20024;-86
2023/05/11 13:30:43;;;;;;;6.88;3.22;;;16.40;87.50;;;;;;4917174;29;20024;-87
2023/05/11 13:33:08;;;;;;;6.03;3.35;;;16.40;87.50;;;;;;4900419;29;20168;-86
2023/05/11 13:35:38;;;;;;;5.20;3.10;;;16.40;87.50;;;;;;4900071;29;20115;-86
2023/05/11 13:38:04;;;;;;;6.20;3.25;;;16.40;87.40;;;;;;4900357;29;20175;-87
2023/05/11 13:40:30;;;;;;;5.45;3.35;;;16.40;87.40;;;;;;4900142;29;20568;-85
2023/05/11 13:42:55;;;;;;;6.13;3.17;;;16.40;87.40;;;;;;4917223;29;20067;-86
2023/05/11 13:45:21;;;;;;;5.70;3.30;;;16.40;87.40;;;;;;4899736;29;20032;-86
2023/05/11 13:47:47;;;;;;;6.00;3.13;;;16.40;87.40;;;;;;4899694;29;20085;-86
2023/05/11 13:50:12;;;;;;;7.50;3.33;;;16.40;87.40;;;;;;4899899;29;20024;-86
2023/05/11 13:52:39;;;;;;;4.95;3.03;;;16.40;87.40;;;;;;4899949;29;20044;-86
2023/05/11 13:55:05;;;;;;;5.78;3.22;;;16.40;87.40;;;;;;4899785;29;20031;-86
2023/05/11 13:57:31;;;;;;;6.65;3.17;;;16.40;87.40;;;;;;4899719;29;20114;-86
2023/05/11 13:59:56;;;;;;;5.63;3.30;;;16.40;87.40;;;;;;4899738;29;20547;-86
2023/05/11 14:02:22;;;;;;;6.40;3.58;;;16.40;87.40;;;;;;4899825;29;20024;-86
2023/05/11 14:04:47;;;;;;;6.10;3.20;;;16.40;87.40;;;;;;4899668;29;20064;-86
2023/05/11 14:07:14;;;;;;;5.60;3.33;;;16.40;87.40;;;;;;4916617;29;20370;-86
2023/05/11 14:09:41;;;;;;;5.45;3.05;;;16.40;87.40;;;;;;4899647;29;20107;-86
2023/05/11 14:12:06;;;;;;;5.57;3.05;;;16.40;87.40;;;;;;4916505;29;20104;-86
2023/05/11 14:14:32;;;;;;;5.82;3.03;;;16.40;87.40;;;;;;4898672;29;20047;-86
2023/05/11 14:16:57;;;;;;;5.40;3.00;;;16.40;87.40;;;;;;4899692;29;20430;-86
2023/05/11 14:19:23;;;;;;;6.60;3.30;;;16.40;87.40;;;;;;4899813;29;20063;-86
2023/05/11 14:21:48;;;;;;;5.13;2.97;;;16.40;87.40;;;;;;4899594;29;20127;-86
2023/05/11 14:24:14;;;;;;;5.80;3.13;;;16.40;87.40;;;;;;4899601;29;20024;-86
2023/05/11 14:26:40;;;;;;;5.40;3.17;;;16.30;87.40;;;;;;4916441;29;20107;-87
2023/05/11 14:29:05;;;;;;;5.35;3.05;;;16.40;87.40;;;;;;4899391;29;20481;-86
2023/05/11 14:31:31;;;;;;;5.82;3.35;;;16.40;87.40;;;;;;4899460;29;20024;-86
2023/05/11 14:33:56;;;;;;;5.20;2.92;;;16.40;87.30;;;;;;4899280;29;20032;-86
2023/05/11 14:36:22;;;;;;;6.18;3.30;;;16.40;87.30;;;;;;4899303;29;20020;-87
2023/05/11 14:38:48;;;;;;;5.50;3.25;;;16.40;87.30;;;;;;4899379;29;20032;-86
2023/05/11 14:41:13;;;;;;;5.43;3.08;;;16.40;87.30;;;;;;4899460;29;20057;-86
2023/05/11 14:43:40;;;;;;;5.50;3.30;;;16.40;87.30;;;;;;4899401;29;20056;-86
2023/05/11 14:46:05;;;;;;;4.57;2.80;;;16.40;87.40;;;;;;4899196;29;20028;-86
2023/05/11 14:48:31;;;;;;;4.88;2.90;;;16.40;87.40;;;;;;4898860;29;20060;-86
2023/05/11 14:50:57;;;;;;;5.57;3.25;;;16.40;87.30;;;;;;4899323;29;20028;-86
2023/05/11 14:53:22;;;;;;;5.47;2.85;;;16.50;87.40;;;;;;4899229;29;20485;-86
2023/05/11 14:55:48;;;;;;;5.38;3.20;;;16.40;87.40;;;;;;4899270;29;20084;-86
2023/05/11 14:58:13;;;;;;;6.55;3.40;;;16.40;87.40;;;;;;4899259;29;20042;-86
2023/05/11 15:00:39;;;;;;;5.45;3.40;;;16.40;87.40;;;;;;4916013;29;20050;-86
2023/05/11 15:03:09;;;;;;;5.47;3.25;;;16.40;87.40;;;;;;4899463;29;20028;-87
2023/05/11 15:05:38;;;;;;;5.13;3.13;;;16.40;87.40;;;;;;4914715;29;20036;-86
2023/05/11 15:08:04;;;;;;;5.00;3.05;;;16.40;87.50;;;;;;4916000;29;20071;-87
2023/05/11 15:10:30;;;;;;;5.18;3.00;;;16.40;87.50;;;;;;4916030;29;20024;-86
2023/05/11 15:12:55;;;;;;;5.40;3.15;;;16.40;87.60;;;;;;4899071;29;20080;-86
2023/05/11 15:15:21;;;;;;;5.35;3.20;;;16.30;87.50;;;;;;4898789;29;20024;-87
2023/05/11 15:17:46;;;;;;;5.20;3.22;;;16.40;87.60;;;;;;4899120;29;20494;-86
2023/05/11 15:20:12;;;;;;;5.15;3.08;;;16.30;87.50;;;;;;4899101;29;20117;-86
2023/05/11 15:22:37;;;;;;;5.55;3.05;;;16.30;87.60;;;;;;4899003;29;20509;-86
2023/05/11 15:25:03;;;;;;;5.85;3.05;;;16.40;88.10;;;;;;4900244;29;20423;-86
2023/05/11 15:27:30;;;;;;;6.13;3.17;;;16.30;87.60;;;;;;4919433;29;20040;-86
2023/05/11 15:29:55;;;;;;;5.93;3.30;;;16.40;87.60;;;;;;4902497;29;20024;-87
2023/05/11 15:32:21;;;;;;;5.00;3.10;;;16.30;87.60;;;;;;4902545;29;20020;-86
2023/05/11 15:34:48;;;;;;;5.10;3.30;;;16.30;87.60;;;;;;4919326;29;20025;-86
2023/05/11 15:37:14;;;;;;;4.93;3.25;;;16.30;87.60;;;;;;4919298;29;20051;-86
2023/05/11 15:39:39;;;;;;;4.65;2.80;;;16.30;87.60;;;;;;4902254;29;20055;-86
2023/05/11 15:42:06;;;;;;;5.03;3.28;;;16.40;87.70;;;;;;4902196;29;20050;-86
2023/05/11 15:44:32;;;;;;;5.28;3.13;;;16.30;87.70;;;;;;4901992;29;20036;-86
2023/05/11 15:46:58;;;;;;;5.70;3.22;;;16.30;87.70;;;;;;4902301;29;20060;-86
2023/05/11 15:49:23;;;;;;;4.82;2.70;;;16.30;87.60;;;;;;4901979;29;20471;-86
2023/05/11 15:51:49;;;;;;;5.10;3.08;;;16.30;87.70;;;;;;4902118;29;20024;-86
2023/05/11 15:54:14;;;;;;;5.10;3.05;;;16.30;87.60;;;;;;4901824;29;20020;-86
2023/05/11 15:56:40;;;;;;;4.90;3.17;;;16.30;87.70;;;;;;4902050;29;20024;-87
2023/05/11 15:59:06;;;;;;;6.07;3.05;;;16.30;87.70;;;;;;4902054;29;20548;-85
2023/05/11 16:01:31;;;;;;;4.93;2.88;;;16.30;87.70;;;;;;4901942;29;20032;-86
2023/05/11 16:06:26;;;;;;;6.38;3.00;;;16.30;87.70;;;;;;4882614;29;20055;-82
2023/05/11 16:08:52;;;;;;;5.57;3.35;;;16.30;87.70;;;;;;4886445;29;20405;-84
2023/05/11 16:11:18;;;;;;;5.30;3.00;;;16.30;87.80;;;;;;4886288;29;20024;-82
2023/05/11 16:13:45;;;;;;;5.20;3.30;;;16.30;87.80;;;;;;4885090;29;20044;-82
2023/05/11 16:16:11;;;;;;;4.63;3.03;;;16.30;87.80;;;;;;4900977;29;20032;-81
2023/05/11 16:18:37;;;;;;;5.45;3.25;;;16.30;87.90;;;;;;4901608;29;20028;-82
2023/05/11 16:21:04;;;;;;;4.78;3.10;;;16.30;87.80;;;;;;4885204;29;20036;-82
2023/05/11 16:23:29;;;;;;;5.30;3.00;;;16.30;87.80;;;;;;4884601;29;20047;-81
2023/05/11 16:25:56;;;;;;;5.50;3.20;;;16.30;87.90;;;;;;4886173;29;20033;-82
2023/05/11 16:28:21;;;;;;;5.93;3.00;;;16.30;87.90;;;;;;4884847;29;20486;-82
2023/05/11 16:30:47;;;;;;;4.90;2.90;;;16.30;87.90;;;;;;4885301;29;20032;-83
2023/05/11 16:33:13;;;;;;;5.43;2.80;;;16.30;87.90;;;;;;4884794;29;20466;-81
2023/05/11 16:35:38;;;;;;;5.65;3.10;;;16.30;87.90;;;;;;4883868;29;20029;-81
2023/05/11 16:38:04;;;;;;;5.20;3.20;;;16.30;87.90;;;;;;4876585;29;20119;-82
2023/05/11 16:40:30;;;;;;;4.68;3.03;;;16.30;87.90;;;;;;4865355;29;20040;-79
2023/05/11 16:42:56;;;;;;;4.60;2.80;;;16.30;87.90;;;;;;4865571;29;20032;-80
2023/05/11 16:45:21;;;;;;;5.13;3.50;;;16.30;88.00;;;;;;4882890;29;20025;-81
2023/05/11 16:47:47;;;;;;;5.18;3.20;;;16.30;88.00;;;;;;4865350;29;20736;-79
2023/05/11 16:50:13;;;;;;;5.13;3.20;;;16.30;88.00;;;;;;4864833;29;20021;-82
2023/05/11 16:52:39;;;;;;;5.40;3.00;;;16.30;88.00;;;;;;4865574;29;20046;-84
2023/05/11 16:55:05;;;;;;;5.20;3.10;;;16.30;88.00;;;;;;4866493;29;20036;-82
2023/05/11 16:57:31;;;;;;;4.65;2.90;;;16.30;88.00;;;;;;4867192;29;20402;-85
2023/05/11 16:59:57;;;;;;;4.38;2.80;;;16.20;88.00;;;;;;4865121;29;20129;-85
2023/05/11 17:02:22;;;;;;;5.53;3.10;;;16.30;88.00;;;;;;4866037;29;20506;-84
2023/05/11 17:04:48;;;;;;;5.70;3.03;;;16.20;88.00;;;;;;4864878;29;20037;-84
2023/05/11 17:07:14;;;;;;;5.25;3.10;;;16.20;88.00;;;;;;4881327;29;20093;-83
2023/05/11 17:09:41;;;;;;;5.32;3.05;;;16.20;88.00;;;;;;4868006;29;20059;-83
2023/05/11 17:12:08;;;;;;;4.18;2.60;;;16.20;88.00;;;;;;4875412;29;20032;-83
2023/05/11 17:14:33;;;;;;;4.88;3.00;;;16.20;88.10;;;;;;4874064;29;20036;-83
2023/05/11 17:16:59;;;;;;;5.20;3.20;;;16.20;88.10;;;;;;4876421;29;20040;-82
2023/05/11 17:19:25;;;;;;;5.55;3.10;;;16.20;88.10;;;;;;4891843;29;20024;-82
2023/05/11 17:21:50;;;;;;;5.00;2.90;;;16.20;88.10;;;;;;4874429;29;20032;-83
2023/05/11 17:24:15;;;;;;;5.32;3.33;;;16.20;88.10;;;;;;4872873;29;20056;-83
2023/05/11 17:26:41;;;;;;;4.47;3.05;;;16.20;88.10;;;;;;4877528;29;20029;-82
2023/05/11 17:29:08;;;;;;;4.93;3.00;;;16.20;88.10;;;;;;4863078;29;20036;-78
2023/05/11 17:31:34;;;;;;;5.10;2.97;;;16.20;88.10;;;;;;4864281;29;20026;-81
2023/05/11 17:34:00;;;;;;;4.35;2.80;;;16.20;88.10;;;;;;4853393;29;20057;-82
2023/05/11 17:36:28;;;;;;;5.40;3.25;;;16.20;88.10;;;;;;4869228;29;20031;-81
2023/05/11 17:38:54;;;;;;;5.57;3.20;;;16.20;88.10;;;;;;4869683;29;20027;-81
2023/05/11 17:41:19;;;;;;;5.13;3.03;;;16.20;88.10;;;;;;4864870;29;20097;-81
2023/05/11 17:43:46;;;;;;;5.07;2.80;;;16.20;88.20;;;;;;4871235;29;20033;-81